createdAt,value
2022-10-17T00:00:50.979Z,8.24
2022-10-17T00:03:18.505Z,8.22
2022-10-17T00:05:47.472Z,8.46
2022-10-17T00:08:17.173Z,8.38
2022-10-17T00:10:44.475Z,8.30
2022-10-17T00:13:12.655Z,8.12
2022-10-17T00:15:44.885Z,8.19
2022-10-17T00:18:12.073Z,8.15
2022-10-17T00:20:39.190Z,8.15
2022-10-17T00:23:06.218Z,8.12
2022-10-17T00:25:33.271Z,8.20
2022-10-17T00:28:00.397Z,8.12
2022-10-17T00:30:27.473Z,8.17
2022-10-17T00:32:54.553Z,8.09
2022-10-17T00:35:21.610Z,8.17
2022-10-17T00:37:48.917Z,8.17
2022-10-17T00:40:17.976Z,8.20
2022-10-17T00:42:47.887Z,8.23
2022-10-17T00:45:23.657Z,8.22
2022-10-17T00:48:00.334Z,8.34
2022-10-17T00:50:28.401Z,8.22
2022-10-17T00:53:01.399Z,8.13
2022-10-17T00:55:32.102Z,8.16
2022-10-17T00:58:02.726Z,8.07
2022-10-17T01:00:29.958Z,8.05
2022-10-17T01:02:58.606Z,7.94
2022-10-17T01:05:26.033Z,8.12
2022-10-17T01:07:54.192Z,8.09
2022-10-17T01:10:24.163Z,8.06
2022-10-17T01:13:00.117Z,8.10
2022-10-17T01:15:55.481Z,8.10
2022-10-17T01:18:37.550Z,8.24
2022-10-17T01:22:09.575Z,8.25
2022-10-17T01:24:52.436Z,8.04
2022-10-17T01:27:41.451Z,8.11
2022-10-17T01:30:11.550Z,7.94
2022-10-17T01:32:47.589Z,7.98
2022-10-17T01:35:27.994Z,7.98
2022-10-17T01:38:41.714Z,8.08
2022-10-17T01:41:28.955Z,8.14
2022-10-17T01:44:37.194Z,8.08
2022-10-17T01:47:09.419Z,8.00
2022-10-17T01:49:38.835Z,7.94
2022-10-17T01:52:13.655Z,7.79
2022-10-17T01:54:45.630Z,7.90
2022-10-17T01:57:28.997Z,8.09
2022-10-17T01:59:57.363Z,8.07
2022-10-17T02:02:27.056Z,8.10
2022-10-17T02:04:57.437Z,8.09
2022-10-17T02:07:24.581Z,8.00
2022-10-17T02:09:53.165Z,8.00
2022-10-17T02:12:38.984Z,7.80
2022-10-17T02:15:43.158Z,8.07
2022-10-17T02:18:30.438Z,8.14
2022-10-17T02:21:03.912Z,8.11
2022-10-17T02:23:36.610Z,8.14
2022-10-17T02:26:06.380Z,8.08
2022-10-17T02:28:39.504Z,7.79
2022-10-17T02:31:13.912Z,7.69
2022-10-17T02:33:58.367Z,7.71
2022-10-17T02:36:48.217Z,7.39
2022-10-17T02:39:17.014Z,7.39
2022-10-17T02:41:46.149Z,7.23
2022-10-17T02:44:13.634Z,7.22
2022-10-17T02:46:42.693Z,7.26
2022-10-17T02:49:25.116Z,7.21
2022-10-17T02:52:08.379Z,7.34
2022-10-17T02:55:04.897Z,7.11
2022-10-17T02:57:39.975Z,6.67
2022-10-17T03:00:11.127Z,6.94
2022-10-17T03:02:44.070Z,7.07
2022-10-17T03:05:12.922Z,7.02
2022-10-17T03:07:39.998Z,7.13
2022-10-17T03:10:07.711Z,7.04
2022-10-17T03:12:34.899Z,7.20
2022-10-17T03:15:02.543Z,7.11
2022-10-17T03:17:31.170Z,7.39
2022-10-17T03:19:59.299Z,7.43
2022-10-17T03:22:26.553Z,7.43
2022-10-17T03:24:53.934Z,7.53
2022-10-17T03:27:20.993Z,7.55
2022-10-17T03:29:48.185Z,7.52
2022-10-17T03:32:16.463Z,7.52
2022-10-17T03:34:43.818Z,7.42
2022-10-17T03:37:10.886Z,7.48
2022-10-17T03:39:39.691Z,7.51
2022-10-17T03:42:06.901Z,7.53
2022-10-17T03:44:34.030Z,7.52
2022-10-17T03:47:01.153Z,7.35
2022-10-17T03:49:28.269Z,7.45
2022-10-17T03:51:55.376Z,7.62
2022-10-17T03:54:22.457Z,7.65
2022-10-17T03:56:49.571Z,7.79
2022-10-17T03:59:19.245Z,7.44
2022-10-17T04:01:56.289Z,7.44
2022-10-17T04:04:23.411Z,7.55
2022-10-17T04:06:50.678Z,7.70
2022-10-17T04:09:17.981Z,7.66
2022-10-17T04:12:00.384Z,7.47
2022-10-17T04:14:27.638Z,7.55
2022-10-17T04:16:55.088Z,7.68
2022-10-17T04:19:22.157Z,7.63
2022-10-17T04:21:50.184Z,7.46
2022-10-17T04:24:17.997Z,7.41
2022-10-17T04:26:51.320Z,7.61
2022-10-17T04:29:19.751Z,7.56
2022-10-17T04:31:51.087Z,7.54
2022-10-17T04:34:22.665Z,7.45
2022-10-17T04:36:49.808Z,7.38
2022-10-17T04:39:17.111Z,7.26
2022-10-17T04:41:45.532Z,7.58
2022-10-17T04:44:12.758Z,7.62
2022-10-17T04:46:44.416Z,7.67
2022-10-17T04:49:11.473Z,7.36
2022-10-17T04:51:41.491Z,7.33
2022-10-17T04:54:21.396Z,7.67
2022-10-17T04:56:53.921Z,7.38
2022-10-17T04:59:21.017Z,7.57
2022-10-17T05:01:55.849Z,7.34
2022-10-17T05:04:24.839Z,7.61
2022-10-17T05:06:53.203Z,7.69
2022-10-17T05:09:40.508Z,7.68
2022-10-17T05:12:10.267Z,7.76
2022-10-17T05:14:40.423Z,7.98
2022-10-17T05:17:07.899Z,8.15
2022-10-17T05:19:35.631Z,8.14
2022-10-17T05:22:02.794Z,8.08
2022-10-17T05:24:29.896Z,7.93
2022-10-17T05:26:56.950Z,8.03
2022-10-17T05:29:24.134Z,8.09
2022-10-17T05:31:56.772Z,7.86
2022-10-17T05:34:25.158Z,7.68
2022-10-17T05:36:52.317Z,7.86
2022-10-17T05:39:23.390Z,7.98
2022-10-17T05:41:52.543Z,8.23
2022-10-17T05:44:19.846Z,8.16
2022-10-17T05:46:53.379Z,8.06
2022-10-17T05:49:33.029Z,8.31
2022-10-17T05:52:07.780Z,8.48
2022-10-17T05:54:45.608Z,8.48
2022-10-17T05:57:13.084Z,8.63
2022-10-17T05:59:41.285Z,8.72
2022-10-17T06:02:13.326Z,8.64
2022-10-17T06:04:45.604Z,8.68
2022-10-17T06:07:13.962Z,8.66
2022-10-17T06:09:43.206Z,8.87
2022-10-17T06:12:11.122Z,8.94
2022-10-17T06:14:38.240Z,9.02
2022-10-17T06:17:07.389Z,9.01
2022-10-17T06:19:36.811Z,9.10
2022-10-17T06:22:04.083Z,8.69
2022-10-17T06:24:32.216Z,8.74
2022-10-17T06:27:05.863Z,8.90
2022-10-17T06:29:36.946Z,8.84
2022-10-17T06:32:04.175Z,8.98
2022-10-17T06:34:32.581Z,8.98
2022-10-17T06:37:00.680Z,8.97
2022-10-17T06:39:33.821Z,8.97
2022-10-17T06:42:06.286Z,9.04
2022-10-17T06:44:44.954Z,9.08
2022-10-17T06:47:32.624Z,9.14
2022-10-17T06:50:05.890Z,9.12
2022-10-17T06:52:42.719Z,9.12
2022-10-17T06:55:28.336Z,9.30
2022-10-17T06:58:29.210Z,9.34
2022-10-17T07:01:11.658Z,9.42
2022-10-17T07:03:41.051Z,9.61
2022-10-17T07:06:08.408Z,9.60
2022-10-17T07:08:35.619Z,9.47
2022-10-17T07:11:11.666Z,9.56
2022-10-17T07:13:39.400Z,9.35
2022-10-17T07:16:08.045Z,9.46
2022-10-17T07:18:36.869Z,9.65
2022-10-17T07:21:04.139Z,9.89
2022-10-17T07:23:32.179Z,9.94
2022-10-17T07:26:07.341Z,9.98
2022-10-17T07:28:37.042Z,10.07
2022-10-17T07:31:15.062Z,10.10
2022-10-17T07:33:43.144Z,9.61
2022-10-17T07:36:11.399Z,9.54
2022-10-17T07:38:39.283Z,9.62
2022-10-17T07:41:08.621Z,9.75
2022-10-17T07:43:36.933Z,9.68
2022-10-17T07:46:05.974Z,9.74
2022-10-17T07:48:35.034Z,9.59
2022-10-17T07:51:04.231Z,9.47
2022-10-17T07:53:31.621Z,9.47
2022-10-17T07:55:58.831Z,9.59
2022-10-17T07:58:26.021Z,9.58
2022-10-17T08:00:53.173Z,9.62
2022-10-17T08:03:20.386Z,9.49
2022-10-17T08:05:47.515Z,9.53
2022-10-17T08:08:14.702Z,9.40
2022-10-17T08:10:43.367Z,9.57
2022-10-17T08:13:10.456Z,9.51
2022-10-17T08:15:38.913Z,9.25
2022-10-17T08:18:05.947Z,9.47
2022-10-17T08:20:33.120Z,9.58
2022-10-17T08:23:00.259Z,9.53
2022-10-17T08:25:27.314Z,9.46
2022-10-17T08:27:54.392Z,9.23
2022-10-17T08:30:21.520Z,9.03
2022-10-17T08:32:48.654Z,9.20
2022-10-17T08:35:15.796Z,9.05
2022-10-17T08:37:42.995Z,8.99
2022-10-17T08:40:27.659Z,8.71
2022-10-17T08:43:15.683Z,8.73
2022-10-17T08:45:47.007Z,8.63
2022-10-17T08:48:17.998Z,8.29
2022-10-17T08:50:59.427Z,8.30
2022-10-17T08:53:41.016Z,8.32
2022-10-17T08:56:20.022Z,8.67
2022-10-17T08:58:52.224Z,8.80
2022-10-17T09:01:50.031Z,8.97
2022-10-17T09:04:46.877Z,9.13
2022-10-17T09:07:20.186Z,9.01
2022-10-17T09:10:05.876Z,8.85
2022-10-17T09:12:44.243Z,8.82
2022-10-17T09:15:40.277Z,8.97
2022-10-17T09:18:21.194Z,9.02
2022-10-17T09:20:54.191Z,8.93
2022-10-17T09:23:30.462Z,8.77
2022-10-17T09:26:00.115Z,8.50
2022-10-17T09:28:37.714Z,8.64
2022-10-17T09:31:11.486Z,8.62
2022-10-17T09:33:54.194Z,8.57
2022-10-17T09:36:30.402Z,8.34
2022-10-17T09:38:59.890Z,8.17
2022-10-17T09:41:50.274Z,8.27
2022-10-17T09:44:24.731Z,8.18
2022-10-17T09:47:32.226Z,8.36
2022-10-17T09:49:59.319Z,8.50
2022-10-17T09:52:30.806Z,8.62
2022-10-17T09:55:03.763Z,8.70
2022-10-17T09:57:53.517Z,8.77
2022-10-17T10:00:24.280Z,8.75
2022-10-17T10:02:51.439Z,8.54
2022-10-17T10:05:20.609Z,8.44
2022-10-17T10:08:06.406Z,8.41
2022-10-17T10:10:34.139Z,8.41
2022-10-17T10:13:18.431Z,8.50
2022-10-17T10:15:47.579Z,8.52
2022-10-17T10:18:26.996Z,8.44
2022-10-17T10:21:10.626Z,8.38
2022-10-17T10:23:40.488Z,8.52
2022-10-17T10:26:29.914Z,8.54
2022-10-17T10:29:02.223Z,8.33
2022-10-17T10:31:33.724Z,8.39
2022-10-17T10:34:12.700Z,8.47
2022-10-17T10:36:55.360Z,8.47
2022-10-17T10:39:35.175Z,8.47
2022-10-17T10:42:05.632Z,8.51
2022-10-17T10:44:34.055Z,8.73
2022-10-17T10:47:23.786Z,8.82
2022-10-17T10:49:53.020Z,8.73
2022-10-17T10:52:29.950Z,8.66
2022-10-17T10:55:24.623Z,8.61
2022-10-17T10:57:56.982Z,8.45
2022-10-17T11:00:27.934Z,8.50
2022-10-17T11:03:15.183Z,8.52
2022-10-17T11:05:51.641Z,8.68
2022-10-17T11:08:27.191Z,8.73
2022-10-17T11:11:17.979Z,8.69
2022-10-17T11:14:13.058Z,8.82
2022-10-17T11:17:02.191Z,8.76
2022-10-17T11:19:44.358Z,8.72
2022-10-17T11:22:38.722Z,8.74
2022-10-17T11:25:22.362Z,8.84
2022-10-17T11:27:49.535Z,8.81
2022-10-17T11:30:17.631Z,8.74
2022-10-17T11:32:49.173Z,8.76
2022-10-17T11:35:38.848Z,8.81
2022-10-17T11:38:05.993Z,8.67
2022-10-17T11:40:39.303Z,8.71
2022-10-17T11:43:27.576Z,8.73
2022-10-17T11:46:03.494Z,8.66
2022-10-17T11:48:41.193Z,8.62
2022-10-17T11:54:15.455Z,8.81
2022-10-17T11:57:00.477Z,8.88
2022-10-17T11:59:54.523Z,9.01
2022-10-17T12:03:01.991Z,9.16
2022-10-17T12:05:42.263Z,8.95
2022-10-17T12:08:34.992Z,8.96
2022-10-17T12:11:28.447Z,9.04
2022-10-17T12:13:56.936Z,9.07
2022-10-17T12:16:23.973Z,9.04
2022-10-17T12:19:11.225Z,8.95
2022-10-17T12:22:03.441Z,9.00
2022-10-17T12:24:45.188Z,9.04
2022-10-17T12:27:23.612Z,9.05
2022-10-17T12:29:58.545Z,9.13
2022-10-17T12:32:30.209Z,8.96
2022-10-17T12:35:04.078Z,8.75
2022-10-17T12:37:43.335Z,8.92
2022-10-17T12:40:35.260Z,9.12
2022-10-17T12:43:28.408Z,9.18
2022-10-17T12:46:00.734Z,9.15
2022-10-17T12:48:33.890Z,9.11
2022-10-17T12:51:34.242Z,8.89
2022-10-17T12:54:15.151Z,8.67
2022-10-17T12:56:44.360Z,8.90
2022-10-17T12:59:22.485Z,8.98
2022-10-17T13:01:55.537Z,9.02
2022-10-17T13:04:23.365Z,9.00
2022-10-17T13:06:56.572Z,8.95
2022-10-17T13:09:29.791Z,8.80
2022-10-17T13:12:00.913Z,8.74
2022-10-17T13:14:29.777Z,8.70
2022-10-17T13:16:59.353Z,8.62
2022-10-17T13:19:31.810Z,8.63
2022-10-17T13:22:06.352Z,8.66
2022-10-17T13:24:40.414Z,8.62
2022-10-17T13:27:23.633Z,8.61
2022-10-17T13:29:50.830Z,8.70
2022-10-17T13:32:18.361Z,8.75
2022-10-17T13:34:45.398Z,8.82
2022-10-17T13:37:19.458Z,8.73
2022-10-17T13:39:55.603Z,8.69
2022-10-17T13:42:29.493Z,8.68
2022-10-17T13:44:58.537Z,8.70
2022-10-17T13:47:32.846Z,8.66
2022-10-17T13:50:01.028Z,8.56
2022-10-17T13:52:30.571Z,8.70
2022-10-17T13:55:17.436Z,8.89
2022-10-17T13:57:44.927Z,8.70
2022-10-17T14:00:23.180Z,8.63
2022-10-17T14:02:50.384Z,8.70
2022-10-17T14:05:20.331Z,9.02
2022-10-17T14:08:13.034Z,9.28
2022-10-17T14:10:43.483Z,9.35
2022-10-17T14:13:28.700Z,9.16
2022-10-17T14:16:00.074Z,9.08
2022-10-17T14:18:36.923Z,9.25
2022-10-17T14:24:13.031Z,9.35
2022-10-17T14:26:53.577Z,9.30
2022-10-17T14:29:24.671Z,9.32
2022-10-17T14:32:16.113Z,9.41
2022-10-17T14:34:43.267Z,9.36
2022-10-17T14:37:13.166Z,9.52
2022-10-17T14:39:40.377Z,9.47
2022-10-17T14:42:07.523Z,9.33
2022-10-17T14:44:35.982Z,9.25
2022-10-17T14:47:30.246Z,9.43
2022-10-17T14:50:03.953Z,9.33
2022-10-17T14:52:34.948Z,9.45
2022-10-17T14:55:25.586Z,9.44
2022-10-17T14:57:52.743Z,9.29
2022-10-17T15:00:21.280Z,9.38
2022-10-17T15:02:49.884Z,9.45
2022-10-17T15:05:17.455Z,9.43
2022-10-17T15:07:44.517Z,9.37
2022-10-17T15:10:34.595Z,9.43
2022-10-17T15:13:27.047Z,9.29
2022-10-17T15:15:52.157Z,9.25
2022-10-17T15:18:19.464Z,9.30
2022-10-17T15:20:46.607Z,9.19
2022-10-17T15:23:13.662Z,9.10
2022-10-17T15:25:40.920Z,9.23
2022-10-17T15:28:10.944Z,9.29
2022-10-17T15:30:38.112Z,9.34
2022-10-17T15:33:05.324Z,9.30
2022-10-17T15:35:32.559Z,9.34
2022-10-17T15:37:59.606Z,9.29
2022-10-17T15:40:29.401Z,9.21
2022-10-17T15:42:57.427Z,9.23
2022-10-17T15:45:25.129Z,9.23
2022-10-17T15:47:59.440Z,9.36
2022-10-17T15:50:29.064Z,9.24
2022-10-17T15:52:56.171Z,9.33
2022-10-17T15:55:23.428Z,9.36
2022-10-17T15:57:50.962Z,9.18
2022-10-17T16:00:22.397Z,9.08
2022-10-17T16:02:50.195Z,9.34
2022-10-17T16:05:29.296Z,9.29
2022-10-17T16:07:57.903Z,9.35
2022-10-17T16:10:26.110Z,9.46
2022-10-17T16:12:53.329Z,9.40
2022-10-17T16:15:25.841Z,9.55
2022-10-17T16:17:54.824Z,9.45
2022-10-17T16:20:23.380Z,9.54
2022-10-17T16:22:51.658Z,9.73
2022-10-17T16:25:20.831Z,9.71
2022-10-17T16:27:50.060Z,9.72
2022-10-17T16:30:17.668Z,9.74
2022-10-17T16:32:47.138Z,9.38
2022-10-17T16:35:26.167Z,9.74
2022-10-17T16:37:53.444Z,9.81
2022-10-17T16:40:20.825Z,9.61
2022-10-17T16:42:47.941Z,9.74
2022-10-17T16:45:18.674Z,9.81
2022-10-17T16:47:46.922Z,9.80
2022-10-17T16:50:14.687Z,9.83
2022-10-17T16:52:42.387Z,9.77
2022-10-17T16:55:10.085Z,9.72
2022-10-17T16:57:37.276Z,9.70
2022-10-17T17:00:06.664Z,9.81
2022-10-17T17:02:33.988Z,9.81
2022-10-17T17:05:01.221Z,9.92
2022-10-17T17:07:29.871Z,9.79
2022-10-17T17:09:57.335Z,9.77
2022-10-17T17:12:24.492Z,9.91
2022-10-17T17:14:51.646Z,9.94
2022-10-17T17:17:37.107Z,9.87
2022-10-17T17:20:07.389Z,9.75
2022-10-17T17:22:35.003Z,9.89
2022-10-17T17:25:02.206Z,9.97
2022-10-17T17:27:30.629Z,9.73
2022-10-17T17:29:59.735Z,9.71
2022-10-17T17:32:26.821Z,9.87
2022-10-17T17:34:54.517Z,9.89
2022-10-17T17:37:21.576Z,9.77
2022-10-17T17:39:48.667Z,9.67
2022-10-17T17:42:15.779Z,9.75
2022-10-17T17:44:42.880Z,9.94
2022-10-17T17:47:09.987Z,9.95
2022-10-17T17:49:37.129Z,9.86
2022-10-17T17:52:04.516Z,9.67
2022-10-17T17:54:31.710Z,9.93
2022-10-17T17:56:58.746Z,9.94
2022-10-17T17:59:25.863Z,9.90
2022-10-17T18:01:52.966Z,9.92
2022-10-17T18:04:20.177Z,9.88
2022-10-17T18:06:47.307Z,9.99
2022-10-17T18:09:14.341Z,9.95
2022-10-17T18:11:42.087Z,9.96
2022-10-17T18:14:12.514Z,9.93
2022-10-17T18:16:39.694Z,9.98
2022-10-17T18:19:09.122Z,9.87
2022-10-17T18:21:37.467Z,10.02
2022-10-17T18:24:05.219Z,10.01
2022-10-17T18:26:32.887Z,9.84
2022-10-17T18:29:00.623Z,10.07
2022-10-17T18:31:36.205Z,9.99
2022-10-17T18:34:05.299Z,10.05
2022-10-17T18:36:34.070Z,10.15
2022-10-17T18:39:01.813Z,10.09
2022-10-17T18:41:29.305Z,10.12
2022-10-17T18:43:57.257Z,10.19
2022-10-17T18:46:41.141Z,10.29
2022-10-17T18:49:10.117Z,10.22
2022-10-17T18:51:37.969Z,10.31
2022-10-17T18:54:05.379Z,10.28
2022-10-17T18:56:32.489Z,10.22
2022-10-17T18:59:00.361Z,10.29
2022-10-17T19:01:28.245Z,10.41
2022-10-17T19:03:58.357Z,10.32
2022-10-17T19:06:32.006Z,10.37
2022-10-17T19:09:01.013Z,10.36
2022-10-17T19:11:30.063Z,10.32
2022-10-17T19:13:59.924Z,10.23
2022-10-17T19:16:30.254Z,10.14
2022-10-17T19:18:59.622Z,10.21
2022-10-17T19:21:27.162Z,10.28
2022-10-17T19:23:57.221Z,10.08
2022-10-17T19:26:25.785Z,10.27
2022-10-17T19:28:53.890Z,10.29
2022-10-17T19:31:26.730Z,10.27
2022-10-17T19:33:55.795Z,10.09
2022-10-17T19:36:29.061Z,10.26
2022-10-17T19:39:00.374Z,9.96
2022-10-17T19:41:28.139Z,10.09
2022-10-17T19:43:55.213Z,10.18
2022-10-17T19:46:24.376Z,10.13
2022-10-17T19:48:52.587Z,10.07
2022-10-17T19:51:24.366Z,9.98
2022-10-17T19:53:53.128Z,10.03
2022-10-17T19:56:23.964Z,10.04
2022-10-17T19:58:51.881Z,10.05
2022-10-17T20:01:21.573Z,9.98
2022-10-17T20:03:49.253Z,10.02
2022-10-17T20:06:17.286Z,9.96
2022-10-17T20:08:44.507Z,9.96
2022-10-17T20:11:19.028Z,9.91
2022-10-17T20:13:47.888Z,9.98
2022-10-17T20:16:17.895Z,9.84
2022-10-17T20:18:44.994Z,9.85
2022-10-17T20:21:14.537Z,9.89
2022-10-17T20:23:42.226Z,9.88
2022-10-17T20:26:25.966Z,9.86
2022-10-17T20:29:03.683Z,9.84
2022-10-17T20:31:30.903Z,9.84
2022-10-17T20:33:59.593Z,9.77
2022-10-17T20:36:27.136Z,9.68
2022-10-17T20:38:55.697Z,9.84
2022-10-17T20:41:26.808Z,9.72
2022-10-17T20:43:55.383Z,9.72
2022-10-17T20:46:36.208Z,9.65
2022-10-17T20:49:07.887Z,9.66
2022-10-17T20:51:35.915Z,9.63
2022-10-17T20:54:03.950Z,9.64
2022-10-17T20:56:32.653Z,9.38
2022-10-17T20:59:10.920Z,9.56
2022-10-17T21:01:38.117Z,9.51
2022-10-17T21:04:33.207Z,9.60
2022-10-17T21:06:53.596Z,9.57
2022-10-17T21:09:21.801Z,9.48
2022-10-17T21:11:52.527Z,9.52
2022-10-17T21:14:19.739Z,9.49
2022-10-17T21:16:47.347Z,9.57
2022-10-17T21:19:15.321Z,9.56
2022-10-17T21:21:44.745Z,9.47
2022-10-17T21:24:14.345Z,9.48
2022-10-17T21:26:43.076Z,9.49
2022-10-17T21:29:12.146Z,9.57
2022-10-17T21:31:41.707Z,9.58
2022-10-17T21:34:11.499Z,9.53
2022-10-17T21:36:38.972Z,9.41
2022-10-17T21:39:09.213Z,9.46
2022-10-17T21:41:36.264Z,9.52
2022-10-17T21:44:06.778Z,9.53
2022-10-17T21:46:34.289Z,9.45
2022-10-17T21:49:01.531Z,9.33
2022-10-17T21:51:28.779Z,9.38
2022-10-17T21:53:57.503Z,9.49
2022-10-17T21:56:28.721Z,9.32
2022-10-17T21:58:56.431Z,9.38
2022-10-17T22:01:29.141Z,9.41
2022-10-17T22:03:58.757Z,9.38
2022-10-17T22:06:44.513Z,9.44
2022-10-17T22:09:16.298Z,9.40
2022-10-17T22:11:47.096Z,9.39
2022-10-17T22:14:15.417Z,9.44
2022-10-17T22:16:45.062Z,9.42
2022-10-17T22:19:13.534Z,9.49
2022-10-17T22:21:40.986Z,9.41
2022-10-17T22:24:11.420Z,9.45
2022-10-17T22:26:39.081Z,9.41
2022-10-17T22:29:07.430Z,9.47
2022-10-17T22:31:35.637Z,9.47
2022-10-17T22:34:04.482Z,9.44
2022-10-17T22:36:33.712Z,9.41
2022-10-17T22:39:00.951Z,9.41
2022-10-17T22:41:28.045Z,9.48
2022-10-17T22:43:55.079Z,9.45
2022-10-17T22:46:22.139Z,9.52
2022-10-17T22:48:49.152Z,9.52
2022-10-17T22:51:16.621Z,9.53
2022-10-17T22:53:43.753Z,9.66
2022-10-17T22:56:19.663Z,9.71
2022-10-17T22:58:47.257Z,9.63
2022-10-17T23:01:20.461Z,9.69
2022-10-17T23:03:48.032Z,9.79
2022-10-17T23:06:15.180Z,9.90
2022-10-17T23:08:44.526Z,9.95
2022-10-17T23:11:11.824Z,9.95
2022-10-17T23:13:42.048Z,9.97
2022-10-17T23:16:09.617Z,10.03
2022-10-17T23:18:39.927Z,9.98
2022-10-17T23:21:07.392Z,9.89
2022-10-17T23:23:34.925Z,9.94
2022-10-17T23:26:13.760Z,9.92
2022-10-17T23:28:42.228Z,9.93
2022-10-17T23:31:20.228Z,9.99
2022-10-17T23:33:49.075Z,9.92
2022-10-17T23:36:18.805Z,9.98
2022-10-17T23:38:47.629Z,10.04
2022-10-17T23:41:15.464Z,10.05
2022-10-17T23:43:43.273Z,10.08
2022-10-17T23:46:10.840Z,9.94
2022-10-17T23:48:38.779Z,10.10
2022-10-17T23:51:07.542Z,10.06
2022-10-17T23:53:38.834Z,9.95
2022-10-17T23:56:10.610Z,9.90
2022-10-17T23:58:38.830Z,10.00
